createdAt,value
2018-10-16T00:00:28.929Z,4.00
2018-10-16T00:01:28.966Z,4.00
2018-10-16T00:02:29.010Z,4.00
2018-10-16T00:03:29.020Z,4.00
2018-10-16T00:04:30.846Z,4.00
2018-10-16T00:05:29.531Z,4.00
2018-10-16T00:06:29.021Z,4.00
2018-10-16T00:07:29.126Z,4.00
2018-10-16T00:08:29.052Z,4.00
2018-10-16T00:11:29.154Z,4.00
2018-10-16T00:12:29.105Z,4.00
2018-10-16T00:13:29.115Z,4.00
2018-10-16T00:14:29.179Z,4.00
2018-10-16T00:15:29.148Z,4.00
2018-10-16T00:16:29.167Z,4.00
2018-10-16T00:17:29.177Z,4.00
2018-10-16T00:18:29.190Z,4.00
2018-10-16T00:19:29.818Z,4.00
2018-10-16T00:20:29.535Z,4.00
2018-10-16T00:21:29.963Z,4.00
2018-10-16T00:22:29.513Z,4.00
2018-10-16T00:23:29.279Z,4.00
2018-10-16T00:24:29.328Z,4.00
2018-10-16T00:25:29.293Z,4.00
2018-10-16T00:26:29.307Z,4.00
2018-10-16T00:27:29.375Z,4.00
2018-10-16T00:28:29.506Z,4.00
2018-10-16T00:29:29.350Z,4.00
2018-10-16T00:30:29.365Z,4.00
2018-10-16T00:31:29.380Z,4.00
2018-10-16T00:32:29.568Z,4.00
2018-10-16T00:33:29.612Z,4.00
2018-10-16T00:34:29.426Z,4.00
2018-10-16T00:35:29.441Z,4.00
2018-10-16T00:36:30.327Z,4.00
2018-10-16T00:37:29.771Z,4.00
2018-10-16T00:38:29.489Z,4.00
2018-10-16T00:39:30.042Z,4.00
2018-10-16T00:40:29.615Z,4.00
2018-10-16T00:41:29.679Z,4.00
2018-10-16T00:42:30.106Z,4.00
2018-10-16T00:43:29.594Z,4.00
2018-10-16T00:44:29.995Z,4.00
2018-10-16T00:45:29.590Z,4.00
2018-10-16T00:46:29.603Z,4.00
2018-10-16T00:47:29.629Z,4.00
2018-10-16T00:48:29.633Z,4.00
2018-10-16T00:49:29.751Z,4.00
2018-10-16T00:50:29.661Z,4.00
2018-10-16T00:51:29.707Z,4.00
2018-10-16T00:52:29.840Z,4.00
2018-10-16T00:53:30.032Z,4.00
2018-10-16T00:54:29.726Z,4.00
2018-10-16T00:55:29.748Z,4.00
2018-10-16T00:56:29.784Z,4.00
2018-10-16T00:57:29.857Z,4.00
2018-10-16T00:58:29.780Z,4.00
2018-10-16T00:59:30.001Z,4.00
2018-10-16T01:00:29.863Z,4.00
2018-10-16T01:02:29.893Z,4.00
2018-10-16T01:03:30.006Z,4.00
2018-10-16T01:04:29.896Z,4.00
2018-10-16T01:05:29.882Z,4.00
2018-10-16T01:06:29.900Z,4.00
2018-10-16T01:07:29.915Z,4.00
2018-10-16T01:08:29.932Z,4.00
2018-10-16T01:09:29.959Z,4.00
2018-10-16T01:10:29.962Z,4.00
2018-10-16T01:12:30.001Z,4.00
2018-10-16T01:13:30.036Z,4.00
2018-10-16T01:14:30.017Z,4.00
2018-10-16T01:15:30.038Z,4.00
2018-10-16T01:16:30.049Z,4.00
2018-10-16T01:17:30.063Z,4.00
2018-10-16T01:18:30.101Z,4.00
2018-10-16T01:19:30.096Z,4.00
2018-10-16T01:20:30.107Z,4.00
2018-10-16T01:21:30.127Z,4.00
2018-10-16T01:22:30.145Z,4.00
2018-10-16T01:23:30.152Z,4.00
2018-10-16T01:24:30.169Z,4.00
2018-10-16T01:25:30.200Z,4.00
2018-10-16T01:26:30.640Z,4.00
2018-10-16T01:27:30.414Z,4.00
2018-10-16T01:31:30.283Z,4.00
2018-10-16T01:32:31.091Z,4.00
2018-10-16T01:33:30.365Z,4.00
2018-10-16T01:34:30.348Z,4.00
2018-10-16T01:35:30.332Z,4.00
2018-10-16T01:36:30.382Z,4.00
2018-10-16T01:37:30.363Z,4.00
2018-10-16T01:38:30.375Z,4.00
2018-10-16T01:39:30.389Z,4.00
2018-10-16T01:40:30.556Z,4.00
2018-10-16T01:41:30.529Z,4.00
2018-10-16T01:42:30.486Z,4.00
2018-10-16T01:43:30.598Z,4.00
2018-10-16T01:46:30.501Z,4.00
2018-10-16T01:47:30.564Z,4.00
2018-10-16T01:48:30.577Z,4.00
2018-10-16T01:49:30.538Z,4.00
2018-10-16T01:50:30.555Z,4.00
2018-10-16T01:51:30.965Z,4.00
2018-10-16T01:52:30.717Z,4.00
2018-10-16T01:53:30.604Z,4.00
2018-10-16T01:54:30.618Z,4.00
2018-10-16T01:55:30.730Z,4.00
2018-10-16T01:56:30.642Z,4.00
2018-10-16T01:57:30.748Z,4.00
2018-10-16T01:58:30.845Z,4.00
2018-10-16T01:59:30.708Z,4.00
2018-10-16T02:00:30.885Z,4.00
2018-10-16T02:01:30.932Z,4.00
2018-10-16T02:02:30.957Z,4.00
2018-10-16T02:03:31.232Z,4.00
2018-10-16T02:04:31.509Z,4.00
2018-10-16T02:05:31.067Z,4.00
2018-10-16T02:06:31.001Z,4.00
2018-10-16T02:07:31.017Z,4.00
2018-10-16T02:08:30.878Z,4.00
2018-10-16T02:09:31.204Z,4.00
2018-10-16T02:10:30.945Z,4.00
2018-10-16T02:11:30.865Z,4.00
2018-10-16T02:12:30.878Z,4.00
2018-10-16T02:13:30.895Z,4.00
2018-10-16T02:14:31.056Z,4.00
2018-10-16T02:15:30.976Z,4.00
2018-10-16T02:17:31.807Z,4.00
2018-10-16T02:18:31.123Z,4.00
2018-10-16T02:20:32.146Z,4.00
2018-10-16T02:23:31.685Z,4.00
2018-10-16T02:24:31.071Z,4.00
2018-10-16T02:25:31.097Z,4.00
2018-10-16T02:26:31.226Z,4.00
2018-10-16T02:27:31.128Z,4.00
2018-10-16T02:28:31.127Z,4.00
2018-10-16T02:29:31.142Z,4.00
2018-10-16T02:30:31.156Z,4.00
2018-10-16T02:31:31.179Z,4.00
2018-10-16T02:33:31.292Z,4.00
2018-10-16T02:34:31.204Z,4.00
2018-10-16T02:35:31.375Z,4.00
2018-10-16T02:36:31.606Z,4.00
2018-10-16T02:38:31.329Z,4.00
2018-10-16T02:39:31.289Z,4.00
2018-10-16T02:40:31.322Z,4.00
2018-10-16T02:41:31.571Z,4.00
2018-10-16T02:42:31.431Z,4.00
2018-10-16T02:43:31.419Z,4.00
2018-10-16T02:45:31.379Z,4.00
2018-10-16T02:46:31.550Z,4.00
2018-10-16T02:47:32.063Z,4.00
2018-10-16T02:48:31.719Z,4.00
2018-10-16T02:49:32.255Z,4.00
2018-10-16T02:50:31.625Z,4.00
2018-10-16T02:51:31.469Z,4.00
2018-10-16T02:52:31.471Z,4.00
2018-10-16T02:53:31.486Z,4.00
2018-10-16T02:54:31.501Z,4.00
2018-10-16T02:55:31.520Z,4.00
2018-10-16T02:56:31.614Z,4.00
2018-10-16T02:57:31.648Z,4.00
2018-10-16T02:58:31.570Z,4.00
2018-10-16T02:59:32.121Z,4.00
2018-10-16T03:00:33.339Z,4.00
2018-10-16T03:01:31.610Z,4.00
2018-10-16T03:02:31.623Z,4.00
2018-10-16T03:03:31.637Z,4.00
2018-10-16T03:04:31.669Z,4.00
2018-10-16T03:05:31.726Z,4.00
2018-10-16T03:06:32.257Z,4.00
2018-10-16T03:07:31.748Z,4.00
2018-10-16T03:08:31.724Z,4.00
2018-10-16T03:09:32.049Z,4.00
2018-10-16T03:10:31.815Z,4.00
2018-10-16T03:11:32.589Z,4.00
2018-10-16T03:12:32.220Z,4.00
2018-10-16T03:13:31.783Z,4.00
2018-10-16T03:14:32.926Z,4.00
2018-10-16T03:16:32.055Z,4.00
2018-10-16T03:17:31.939Z,4.00
2018-10-16T03:18:31.859Z,4.00
2018-10-16T03:19:32.513Z,4.00
2018-10-16T03:20:32.405Z,4.00
2018-10-16T03:22:32.176Z,4.00
2018-10-16T03:23:32.740Z,4.00
2018-10-16T03:24:31.950Z,4.00
2018-10-16T03:25:32.482Z,4.00
2018-10-16T03:26:31.993Z,4.00
2018-10-16T03:27:32.223Z,4.00
2018-10-16T03:28:32.574Z,4.00
2018-10-16T03:29:32.042Z,4.00
2018-10-16T03:30:32.627Z,4.00
2018-10-16T03:31:32.057Z,4.00
2018-10-16T03:32:32.068Z,4.00
2018-10-16T03:33:32.081Z,4.00
2018-10-16T03:34:32.097Z,4.00
2018-10-16T03:35:32.113Z,4.00
2018-10-16T03:36:32.128Z,4.00
2018-10-16T03:37:32.146Z,4.00
2018-10-16T03:38:32.206Z,4.00
2018-10-16T03:39:32.174Z,4.00
2018-10-16T03:40:32.187Z,4.00
2018-10-16T03:41:32.364Z,4.00
2018-10-16T03:43:32.718Z,4.00
2018-10-16T03:44:32.407Z,4.00
2018-10-16T03:45:32.259Z,4.00
2018-10-16T03:46:32.290Z,4.00
2018-10-16T03:47:32.369Z,4.00
2018-10-16T03:48:32.349Z,4.00
2018-10-16T03:49:32.361Z,4.00
2018-10-16T03:50:33.059Z,4.00
2018-10-16T03:53:32.949Z,4.00
2018-10-16T03:54:33.058Z,4.00
2018-10-16T03:55:32.726Z,4.00
2018-10-16T03:56:32.439Z,4.00
2018-10-16T03:57:32.541Z,4.00
2018-10-16T03:58:33.051Z,4.00
2018-10-16T03:59:32.512Z,4.00
2018-10-16T04:01:32.593Z,4.00
2018-10-16T04:02:33.567Z,4.00
2018-10-16T04:03:32.535Z,4.00
2018-10-16T04:04:32.541Z,4.00
2018-10-16T04:05:32.557Z,4.00
2018-10-16T04:06:32.619Z,4.00
2018-10-16T04:07:32.588Z,4.00
2018-10-16T04:08:32.602Z,4.00
2018-10-16T04:09:32.615Z,4.00
2018-10-16T04:11:32.749Z,4.00
2018-10-16T04:12:32.716Z,4.00
2018-10-16T04:14:32.942Z,4.00
2018-10-16T04:15:32.704Z,4.00
2018-10-16T04:16:33.489Z,4.00
2018-10-16T04:17:32.878Z,4.00
2018-10-16T04:18:32.806Z,4.00
2018-10-16T04:19:33.940Z,4.00
2018-10-16T04:21:33.432Z,4.00
2018-10-16T04:22:33.281Z,4.00
2018-10-16T04:23:32.847Z,4.00
2018-10-16T04:24:32.838Z,4.00
2018-10-16T04:26:33.171Z,4.00
2018-10-16T04:27:32.968Z,4.00
2018-10-16T04:29:32.911Z,4.00
2018-10-16T04:30:32.927Z,4.00
2018-10-16T04:31:33.055Z,4.00
2018-10-16T04:32:33.045Z,4.00
2018-10-16T04:33:32.996Z,4.00
2018-10-16T04:34:33.143Z,4.00
2018-10-16T04:35:33.340Z,4.00
2018-10-16T04:36:33.449Z,4.00
2018-10-16T04:37:33.076Z,4.00
2018-10-16T04:38:33.047Z,4.00
2018-10-16T04:39:33.396Z,4.00
2018-10-16T04:40:33.336Z,4.00
2018-10-16T04:41:33.292Z,4.00
2018-10-16T04:42:33.244Z,4.00
2018-10-16T04:43:33.250Z,4.00
2018-10-16T04:44:33.243Z,4.00
2018-10-16T04:46:33.192Z,4.00
2018-10-16T04:48:33.747Z,4.00
2018-10-16T04:49:34.197Z,4.00
2018-10-16T04:50:34.246Z,4.00
2018-10-16T04:51:33.708Z,4.00
2018-10-16T04:53:33.368Z,4.00
2018-10-16T04:54:33.334Z,4.00
2018-10-16T04:55:34.317Z,4.00
2018-10-16T04:56:34.234Z,4.00
2018-10-16T04:57:33.661Z,4.00
2018-10-16T04:58:33.383Z,4.00
2018-10-16T04:59:33.355Z,4.00
2018-10-16T05:00:33.370Z,4.00
2018-10-16T05:01:33.389Z,0.00
2018-10-16T05:02:33.557Z,4.00
2018-10-16T05:03:33.435Z,4.00
2018-10-16T05:04:33.609Z,4.00
2018-10-16T05:07:33.630Z,4.00
2018-10-16T05:08:33.827Z,4.00
2018-10-16T05:09:34.684Z,4.00
2018-10-16T05:10:33.842Z,4.00
2018-10-16T05:11:33.560Z,4.00
2018-10-16T05:12:33.558Z,4.00
2018-10-16T05:13:33.563Z,4.00
2018-10-16T05:14:33.571Z,4.00
2018-10-16T05:15:33.608Z,4.00
2018-10-16T05:16:33.613Z,4.00
2018-10-16T05:17:34.131Z,4.00
2018-10-16T05:18:34.053Z,4.00
2018-10-16T05:19:34.368Z,4.00
2018-10-16T05:20:33.748Z,4.00
2018-10-16T05:22:33.691Z,4.00
2018-10-16T05:23:33.704Z,4.00
2018-10-16T05:24:34.173Z,4.00
2018-10-16T05:25:33.824Z,4.00
2018-10-16T05:26:33.817Z,4.00
2018-10-16T05:27:33.913Z,4.00
2018-10-16T05:28:34.352Z,4.00
2018-10-16T05:29:34.197Z,4.00
2018-10-16T05:30:35.314Z,4.00
2018-10-16T05:31:34.100Z,8.00
2018-10-16T05:32:33.864Z,4.00
2018-10-16T05:33:34.081Z,4.00
2018-10-16T05:34:34.076Z,8.00
2018-10-16T05:35:34.015Z,4.00
2018-10-16T05:36:34.688Z,8.00
2018-10-16T05:37:34.039Z,8.00
2018-10-16T05:38:34.100Z,8.00
2018-10-16T05:40:34.148Z,8.00
2018-10-16T05:42:34.174Z,12.00
2018-10-16T05:43:34.015Z,16.00
2018-10-16T05:44:34.460Z,16.00
2018-10-16T05:45:34.178Z,20.00
2018-10-16T05:47:34.453Z,24.00
2018-10-16T05:48:34.307Z,24.00
2018-10-16T05:50:34.730Z,32.00
2018-10-16T05:51:34.882Z,36.00
2018-10-16T05:52:34.177Z,40.00
2018-10-16T05:53:34.162Z,44.00
2018-10-16T05:54:34.240Z,48.00
2018-10-16T05:55:34.216Z,56.00
2018-10-16T05:56:34.389Z,60.00
2018-10-16T05:57:34.449Z,64.00
2018-10-16T05:58:34.339Z,68.00
2018-10-16T05:59:34.290Z,76.00
2018-10-16T06:01:34.464Z,88.00
2018-10-16T06:03:34.293Z,104.00
2018-10-16T06:04:34.442Z,116.00
2018-10-16T06:05:34.433Z,124.00
2018-10-16T06:06:34.333Z,132.00
2018-10-16T06:07:34.360Z,140.00
2018-10-16T06:08:34.357Z,152.00
2018-10-16T06:09:34.373Z,164.00
2018-10-16T06:10:34.444Z,172.00
2018-10-16T06:11:35.192Z,184.00
2018-10-16T06:12:34.416Z,192.00
2018-10-16T06:13:34.430Z,200.00
2018-10-16T06:14:34.460Z,208.00
2018-10-16T06:15:34.462Z,212.00
2018-10-16T06:17:34.669Z,228.00
2018-10-16T06:18:35.306Z,236.00
2018-10-16T06:19:34.520Z,248.00
2018-10-16T06:20:34.534Z,252.00
2018-10-16T06:21:34.579Z,260.00
2018-10-16T06:22:34.561Z,272.00
2018-10-16T06:23:34.588Z,280.00
2018-10-16T06:24:34.650Z,284.00
2018-10-16T06:25:34.975Z,292.00
2018-10-16T06:26:34.775Z,300.00
2018-10-16T06:27:34.671Z,304.00
2018-10-16T06:28:34.655Z,312.00
2018-10-16T06:30:34.680Z,324.00
2018-10-16T06:31:34.706Z,332.00
2018-10-16T06:32:34.800Z,336.00
2018-10-16T06:33:34.764Z,344.00
2018-10-16T06:34:35.235Z,352.00
2018-10-16T06:35:34.756Z,356.00
2018-10-16T06:36:34.776Z,364.00
2018-10-16T06:37:34.787Z,372.00
2018-10-16T06:38:34.799Z,376.00
2018-10-16T06:39:34.869Z,380.00
2018-10-16T06:40:34.838Z,388.00
2018-10-16T06:41:34.859Z,392.00
2018-10-16T06:42:34.857Z,396.00
2018-10-16T06:43:34.893Z,404.00
2018-10-16T06:44:34.900Z,408.00
2018-10-16T06:45:34.944Z,412.00
2018-10-16T06:46:34.967Z,420.00
2018-10-16T06:47:35.052Z,424.00
2018-10-16T06:48:35.302Z,428.00
2018-10-16T06:49:34.960Z,436.00
2018-10-16T06:50:34.973Z,440.00
2018-10-16T06:51:35.010Z,444.00
2018-10-16T06:53:35.028Z,460.00
2018-10-16T06:54:35.050Z,468.00
2018-10-16T06:55:35.779Z,472.00
2018-10-16T06:56:36.379Z,480.00
2018-10-16T06:57:35.344Z,488.00
2018-10-16T06:58:35.306Z,492.00
2018-10-16T07:01:35.156Z,508.00
2018-10-16T07:02:35.926Z,516.00
2018-10-16T07:05:35.511Z,536.00
2018-10-16T07:06:35.296Z,540.00
2018-10-16T07:07:36.732Z,548.00
2018-10-16T07:08:35.411Z,552.00
2018-10-16T07:09:35.323Z,564.00
2018-10-16T07:10:35.313Z,572.00
2018-10-16T07:11:36.009Z,580.00
2018-10-16T07:12:36.665Z,588.00
2018-10-16T07:14:35.469Z,604.00
2018-10-16T07:15:35.554Z,612.00
2018-10-16T07:16:35.366Z,620.00
2018-10-16T07:17:35.368Z,628.00
2018-10-16T07:19:36.272Z,636.00
2018-10-16T07:20:35.855Z,644.00
2018-10-16T07:21:35.493Z,652.00
2018-10-16T07:23:35.624Z,664.00
2018-10-16T07:24:35.645Z,676.00
2018-10-16T07:25:35.639Z,688.00
2018-10-16T07:26:36.046Z,696.00
2018-10-16T07:27:36.346Z,708.00
2018-10-16T07:28:35.610Z,720.00
2018-10-16T07:30:35.783Z,736.00
2018-10-16T07:31:36.069Z,744.00
2018-10-16T07:32:36.723Z,756.00
2018-10-16T07:33:35.598Z,764.00
2018-10-16T07:34:35.671Z,764.00
2018-10-16T07:35:36.440Z,772.00
2018-10-16T07:36:35.731Z,784.00
2018-10-16T07:37:35.706Z,804.00
2018-10-16T07:38:36.868Z,808.00
2018-10-16T07:39:36.273Z,820.00
2018-10-16T07:40:35.862Z,868.00
2018-10-16T07:42:36.273Z,1188.00
2018-10-16T07:43:35.757Z,1240.00
2018-10-16T07:44:35.850Z,1336.00
2018-10-16T07:45:36.472Z,1392.00
2018-10-16T07:46:35.829Z,1328.00
2018-10-16T07:47:35.828Z,964.00
2018-10-16T07:48:35.891Z,964.00
2018-10-16T07:49:36.169Z,1052.00
2018-10-16T07:50:35.882Z,1252.00
2018-10-16T07:51:35.902Z,1024.00
2018-10-16T07:52:35.933Z,1160.00
2018-10-16T07:53:36.021Z,1068.00
2018-10-16T07:54:35.927Z,1060.00
2018-10-16T07:55:35.922Z,1016.00
2018-10-16T07:56:35.935Z,1148.00
2018-10-16T07:57:35.952Z,1464.00
2018-10-16T07:58:35.971Z,1520.00
2018-10-16T08:00:36.006Z,1704.00
2018-10-16T08:01:36.012Z,1712.00
2018-10-16T08:02:36.024Z,1696.00
2018-10-16T08:03:37.633Z,1652.00
2018-10-16T08:04:36.067Z,1672.00
2018-10-16T08:05:36.070Z,1756.00
2018-10-16T08:06:36.086Z,1768.00
2018-10-16T08:07:36.098Z,1776.00
2018-10-16T08:08:36.162Z,1788.00
2018-10-16T08:09:36.212Z,1796.00
2018-10-16T08:10:36.369Z,1796.00
2018-10-16T08:11:36.169Z,1808.00
2018-10-16T08:12:36.173Z,1820.00
2018-10-16T08:13:36.185Z,1828.00
2018-10-16T08:14:36.200Z,1816.00
2018-10-16T08:15:36.325Z,1620.00
2018-10-16T08:16:36.293Z,1444.00
2018-10-16T08:18:36.490Z,1784.00
2018-10-16T08:19:37.156Z,1884.00
2018-10-16T08:20:36.539Z,1856.00
2018-10-16T08:21:37.423Z,1788.00
2018-10-16T08:22:36.389Z,1764.00
2018-10-16T08:23:36.685Z,1568.00
2018-10-16T08:25:36.756Z,1900.00
2018-10-16T08:26:36.538Z,1896.00
2018-10-16T08:27:36.447Z,1900.00
2018-10-16T08:28:36.414Z,1880.00
2018-10-16T08:29:36.562Z,1900.00
2018-10-16T08:30:36.519Z,1900.00
2018-10-16T08:31:37.047Z,1900.00
2018-10-16T08:32:36.573Z,1904.00
2018-10-16T08:33:36.510Z,1904.00
2018-10-16T08:34:36.506Z,1908.00
2018-10-16T08:35:36.578Z,1908.00
2018-10-16T08:36:36.602Z,1912.00
2018-10-16T08:37:36.562Z,1912.00
2018-10-16T08:38:36.575Z,1912.00
2018-10-16T08:39:36.591Z,1920.00
2018-10-16T08:40:36.709Z,1924.00
2018-10-16T08:41:36.677Z,1928.00
2018-10-16T08:42:36.627Z,1928.00
2018-10-16T08:43:36.709Z,1928.00
2018-10-16T08:44:36.642Z,1924.00
2018-10-16T08:45:36.669Z,1928.00
2018-10-16T08:46:36.825Z,1924.00
2018-10-16T08:47:36.738Z,1936.00
2018-10-16T08:48:36.716Z,1936.00
2018-10-16T08:50:37.381Z,1944.00
2018-10-16T08:51:36.759Z,1940.00
2018-10-16T08:52:36.772Z,1948.00
2018-10-16T08:53:36.774Z,1944.00
2018-10-16T08:54:37.173Z,1948.00
2018-10-16T08:55:36.809Z,1952.00
2018-10-16T08:56:36.895Z,1956.00
2018-10-16T08:57:36.895Z,1960.00
2018-10-16T08:58:36.853Z,1960.00
2018-10-16T08:59:37.138Z,1952.00
2018-10-16T09:00:36.883Z,1964.00
2018-10-16T09:01:36.899Z,1972.00
2018-10-16T09:02:38.316Z,1976.00
2018-10-16T09:03:36.925Z,1980.00
2018-10-16T09:04:37.010Z,1984.00
2018-10-16T09:05:36.965Z,1984.00
2018-10-16T09:07:37.044Z,1988.00
2018-10-16T09:08:37.009Z,1984.00
2018-10-16T09:09:37.024Z,2000.00
2018-10-16T09:10:37.049Z,2008.00
2018-10-16T09:11:37.055Z,2016.00
2018-10-16T09:12:37.070Z,2020.00
2018-10-16T09:13:37.120Z,2032.00
2018-10-16T09:14:37.225Z,2040.00
2018-10-16T09:15:37.114Z,2040.00
2018-10-16T09:16:37.154Z,2052.00
2018-10-16T09:17:37.164Z,2064.00
2018-10-16T09:18:37.199Z,2080.00
2018-10-16T09:19:37.165Z,2092.00
2018-10-16T09:20:37.190Z,2116.00
2018-10-16T09:21:37.205Z,2124.00
2018-10-16T09:22:37.209Z,2136.00
2018-10-16T09:23:37.280Z,2152.00
2018-10-16T09:24:37.277Z,2164.00
2018-10-16T09:25:37.269Z,2148.00
2018-10-16T09:26:37.276Z,2188.00
2018-10-16T09:27:37.318Z,2212.00
2018-10-16T09:28:37.410Z,2232.00
2018-10-16T09:29:37.318Z,2256.00
2018-10-16T09:30:37.394Z,2260.00
2018-10-16T09:31:37.557Z,2292.00
2018-10-16T09:32:37.369Z,2308.00
2018-10-16T09:33:37.463Z,2320.00
2018-10-16T09:34:37.420Z,2328.00
2018-10-16T09:35:38.313Z,2332.00
2018-10-16T09:37:37.527Z,2352.00
2018-10-16T09:38:37.456Z,2364.00
2018-10-16T09:39:37.512Z,2368.00
2018-10-16T09:40:38.359Z,2384.00
2018-10-16T09:41:38.700Z,2388.00
2018-10-16T09:42:38.640Z,2396.00
2018-10-16T09:43:37.545Z,2412.00
2018-10-16T09:44:37.551Z,2408.00
2018-10-16T09:45:37.573Z,2420.00
2018-10-16T09:46:37.579Z,2428.00
2018-10-16T09:47:38.328Z,2360.00
2018-10-16T09:48:38.359Z,2428.00
2018-10-16T09:53:37.705Z,2428.00
2018-10-16T09:55:37.741Z,2424.00
2018-10-16T09:57:37.773Z,2416.00
2018-10-16T09:58:38.593Z,2404.00
2018-10-16T09:59:37.811Z,2400.00
2018-10-16T10:00:38.197Z,2388.00
2018-10-16T10:02:38.382Z,2420.00
2018-10-16T10:03:37.854Z,2400.00
2018-10-16T10:04:38.354Z,2396.00
2018-10-16T10:06:37.903Z,2396.00
2018-10-16T10:07:38.166Z,2404.00
2018-10-16T10:08:39.453Z,2412.00
2018-10-16T10:10:38.369Z,2480.00
2018-10-16T10:11:38.066Z,2408.00
2018-10-16T10:12:39.073Z,2404.00
2018-10-16T10:13:38.013Z,2408.00
2018-10-16T10:15:38.784Z,2412.00
2018-10-16T10:16:38.058Z,2408.00
2018-10-16T10:17:38.502Z,2404.00
2018-10-16T10:19:39.944Z,2412.00
2018-10-16T10:20:39.321Z,2404.00
2018-10-16T10:21:38.988Z,2404.00
2018-10-16T10:22:38.353Z,2384.00
2018-10-16T10:23:38.438Z,2396.00
2018-10-16T10:24:38.181Z,2380.00
2018-10-16T10:25:38.401Z,2388.00
2018-10-16T10:28:39.943Z,2388.00
2018-10-16T10:29:38.386Z,2392.00
2018-10-16T10:30:39.352Z,2388.00
2018-10-16T10:32:38.319Z,2388.00
2018-10-16T10:33:38.378Z,2400.00
2018-10-16T10:34:38.637Z,2400.00
2018-10-16T10:36:38.986Z,2400.00
2018-10-16T10:38:38.426Z,2400.00
2018-10-16T10:39:38.652Z,2400.00
2018-10-16T10:40:39.339Z,2400.00
2018-10-16T10:41:38.617Z,2392.00
2018-10-16T10:42:38.557Z,2416.00
2018-10-16T10:45:38.906Z,2412.00
2018-10-16T10:46:38.587Z,2404.00
2018-10-16T10:47:38.562Z,2424.00
2018-10-16T10:48:38.818Z,2424.00
2018-10-16T10:49:38.582Z,2432.00
2018-10-16T10:50:39.210Z,2428.00
2018-10-16T10:51:38.989Z,2424.00
2018-10-16T10:52:38.728Z,2428.00
2018-10-16T10:53:39.564Z,2428.00
2018-10-16T10:54:38.664Z,2444.00
2018-10-16T10:55:38.689Z,2416.00
2018-10-16T10:56:38.781Z,2400.00
2018-10-16T10:57:38.755Z,2388.00
2018-10-16T10:58:38.714Z,2380.00
2018-10-16T10:59:38.725Z,2372.00
2018-10-16T11:00:38.743Z,2368.00
2018-10-16T11:01:38.787Z,2364.00
2018-10-16T11:02:39.134Z,2360.00
2018-10-16T11:03:39.476Z,2356.00
2018-10-16T11:04:39.052Z,2348.00
2018-10-16T11:05:38.835Z,2340.00
2018-10-16T11:06:38.921Z,2336.00
2018-10-16T11:07:38.900Z,2332.00
2018-10-16T11:08:39.157Z,2328.00
2018-10-16T11:09:38.900Z,2332.00
2018-10-16T11:10:39.236Z,2328.00
2018-10-16T11:11:38.926Z,2324.00
2018-10-16T11:12:39.618Z,2320.00
2018-10-16T11:13:39.645Z,2316.00
2018-10-16T11:14:39.635Z,2316.00
2018-10-16T11:15:39.085Z,2308.00
2018-10-16T11:17:39.047Z,2300.00
2018-10-16T11:18:40.061Z,2292.00
2018-10-16T11:19:40.004Z,2296.00
2018-10-16T11:20:39.062Z,2296.00
2018-10-16T11:21:39.089Z,2296.00
2018-10-16T11:22:39.127Z,2300.00
2018-10-16T11:23:39.578Z,2308.00
2018-10-16T11:24:39.261Z,2308.00
2018-10-16T11:25:39.246Z,2328.00
2018-10-16T11:27:39.227Z,2348.00
2018-10-16T11:28:39.229Z,2360.00
2018-10-16T11:29:39.237Z,2376.00
2018-10-16T11:30:39.500Z,2380.00
2018-10-16T11:31:39.242Z,2380.00
2018-10-16T11:32:39.254Z,2396.00
2018-10-16T11:33:39.309Z,2400.00
2018-10-16T11:34:39.533Z,2404.00
2018-10-16T11:35:39.381Z,2408.00
2018-10-16T11:36:39.417Z,2416.00
2018-10-16T11:37:39.376Z,2424.00
2018-10-16T11:38:39.531Z,2436.00
2018-10-16T11:39:39.364Z,2440.00
2018-10-16T11:40:39.598Z,2408.00
2018-10-16T11:41:39.400Z,2440.00
2018-10-16T11:44:39.761Z,2432.00
2018-10-16T11:45:39.578Z,2432.00
2018-10-16T11:46:39.586Z,2436.00
2018-10-16T11:47:39.551Z,2436.00
2018-10-16T11:48:39.594Z,2444.00
2018-10-16T11:49:39.537Z,2448.00
2018-10-16T11:50:39.569Z,2436.00
2018-10-16T11:51:39.675Z,2428.00
2018-10-16T11:52:39.592Z,2468.00
2018-10-16T11:53:39.794Z,2436.00
2018-10-16T11:55:39.667Z,2448.00
2018-10-16T11:56:39.644Z,2444.00
2018-10-16T11:57:39.726Z,2448.00
2018-10-16T11:58:39.676Z,2448.00
2018-10-16T11:59:39.712Z,2444.00
2018-10-16T12:00:39.768Z,2456.00
2018-10-16T12:02:39.881Z,2468.00
2018-10-16T12:03:40.956Z,2468.00
2018-10-16T12:04:39.777Z,2456.00
2018-10-16T12:05:39.796Z,2452.00
2018-10-16T12:06:41.016Z,2456.00
2018-10-16T12:07:39.855Z,2472.00
2018-10-16T12:08:39.910Z,2472.00
2018-10-16T12:09:39.859Z,2468.00
2018-10-16T12:10:39.983Z,2460.00
2018-10-16T12:11:39.891Z,2456.00
2018-10-16T12:12:40.021Z,2440.00
2018-10-16T12:13:39.935Z,2460.00
2018-10-16T12:14:40.515Z,2464.00
2018-10-16T12:15:40.042Z,2468.00
2018-10-16T12:16:40.010Z,2464.00
2018-10-16T12:18:40.155Z,2408.00
2018-10-16T12:19:40.480Z,2396.00
2018-10-16T12:20:41.370Z,2392.00
2018-10-16T12:22:41.170Z,2424.00
2018-10-16T12:23:40.168Z,2424.00
2018-10-16T12:24:40.497Z,2420.00
2018-10-16T12:25:40.117Z,2424.00
2018-10-16T12:26:40.128Z,2424.00
2018-10-16T12:27:40.146Z,2420.00
2018-10-16T12:28:40.165Z,2416.00
2018-10-16T12:29:40.178Z,2416.00
2018-10-16T12:30:40.197Z,2420.00
2018-10-16T12:31:40.372Z,2408.00
2018-10-16T12:32:40.276Z,2412.00
2018-10-16T12:33:40.738Z,2396.00
2018-10-16T12:34:40.337Z,2388.00
2018-10-16T12:35:40.994Z,2388.00
2018-10-16T12:36:40.351Z,2384.00
2018-10-16T12:37:41.317Z,2384.00
2018-10-16T12:38:40.493Z,2376.00
2018-10-16T12:39:40.487Z,2372.00
2018-10-16T12:43:40.825Z,2388.00
2018-10-16T12:46:41.561Z,2384.00
2018-10-16T12:47:40.917Z,2384.00
2018-10-16T12:50:40.536Z,2348.00
2018-10-16T12:51:40.557Z,2352.00
2018-10-16T12:52:41.647Z,2360.00
2018-10-16T12:53:41.296Z,2364.00
2018-10-16T12:54:40.699Z,2368.00
2018-10-16T12:55:40.609Z,2368.00
2018-10-16T12:56:40.681Z,2360.00
2018-10-16T12:57:40.641Z,2352.00
2018-10-16T12:58:40.670Z,2344.00
2018-10-16T12:59:40.689Z,2344.00
2018-10-16T13:00:40.730Z,2348.00
2018-10-16T13:01:40.719Z,2576.00
2018-10-16T13:02:40.731Z,3440.00
2018-10-16T13:03:40.984Z,3476.00
2018-10-16T13:04:40.748Z,3432.00
2018-10-16T13:05:40.846Z,3552.00
2018-10-16T13:06:41.162Z,3632.00
2018-10-16T13:07:40.930Z,3552.00
2018-10-16T13:08:40.816Z,3292.00
2018-10-16T13:09:40.839Z,2760.00
2018-10-16T13:10:40.980Z,2760.00
2018-10-16T13:11:40.921Z,3300.00
2018-10-16T13:12:40.871Z,3224.00
2018-10-16T13:13:40.890Z,3064.00
2018-10-16T13:15:40.949Z,2516.00
2018-10-16T13:16:41.316Z,2500.00
2018-10-16T13:17:41.009Z,2488.00
2018-10-16T13:18:40.993Z,2484.00
2018-10-16T13:19:40.986Z,2580.00
2018-10-16T13:22:41.066Z,2960.00
2018-10-16T13:23:41.180Z,2760.00
2018-10-16T13:24:41.645Z,2448.00
2018-10-16T13:26:41.884Z,2404.00
2018-10-16T13:27:41.248Z,2404.00
2018-10-16T13:28:41.176Z,2404.00
2018-10-16T13:29:41.457Z,2400.00
2018-10-16T13:30:41.161Z,2416.00
2018-10-16T13:31:41.188Z,2384.00
2018-10-16T13:32:41.413Z,2384.00
2018-10-16T13:33:43.501Z,2376.00
2018-10-16T13:34:41.509Z,2372.00
2018-10-16T13:35:41.232Z,2372.00
2018-10-16T13:36:41.345Z,2380.00
2018-10-16T13:37:41.259Z,2376.00
2018-10-16T13:38:41.341Z,2376.00
2018-10-16T13:39:41.304Z,2380.00
2018-10-16T13:40:41.306Z,2376.00
2018-10-16T13:41:41.495Z,2372.00
2018-10-16T13:42:41.384Z,2368.00
2018-10-16T13:43:41.350Z,2368.00
2018-10-16T13:44:41.389Z,2364.00
2018-10-16T13:45:41.756Z,2364.00
2018-10-16T13:46:42.119Z,2368.00
2018-10-16T13:47:41.408Z,2364.00
2018-10-16T13:48:41.602Z,2364.00
2018-10-16T13:51:42.438Z,2356.00
2018-10-16T13:52:41.750Z,2340.00
2018-10-16T13:53:41.697Z,2340.00
2018-10-16T13:54:41.520Z,2332.00
2018-10-16T13:55:41.590Z,2332.00
2018-10-16T13:56:41.587Z,2324.00
2018-10-16T13:57:41.557Z,2316.00
2018-10-16T13:58:42.109Z,2308.00
2018-10-16T13:59:41.777Z,2308.00
2018-10-16T14:00:41.669Z,2308.00
2018-10-16T14:01:41.629Z,2304.00
2018-10-16T14:02:41.694Z,2304.00
2018-10-16T14:03:41.655Z,2300.00
2018-10-16T14:04:41.668Z,2296.00
2018-10-16T14:05:41.691Z,2288.00
2018-10-16T14:06:41.695Z,2288.00
2018-10-16T14:07:41.736Z,2280.00
2018-10-16T14:08:41.726Z,2272.00
2018-10-16T14:09:41.740Z,2260.00
2018-10-16T14:10:41.757Z,2260.00
2018-10-16T14:11:41.774Z,2256.00
2018-10-16T14:12:41.786Z,2252.00
2018-10-16T14:13:41.860Z,2240.00